Time;durP1;ratioP1;P1;durP2;ratioP2;P2;SDS_P1;SDS_P2;PMS_P1;PMS_P2;Temp;Humidity;BMP_temperature;BMP_pressure;BME280_temperature;BME280_humidity;BME280_pressure;Samples;Min_cycle;Max_cycle;Signal;HPM_P1;HPM_P2
2021/12/12 05:00:20;;;;;;;7.47;3.95;;;;;;;2.80;100.00;95220.03;6049748;23;20022;31
2021/12/12 05:02:59;;;;;;;4.65;2.97;;;;;;;2.82;100.00;95225.88;4895764;29;20044;-77
2021/12/12 05:05:30;;;;;;;4.68;3.10;;;;;;;2.86;100.00;95235.72;4897887;29;20532;-75
2021/12/12 05:07:58;;;;;;;6.85;4.38;;;;;;;2.82;100.00;95226.69;4880403;29;20127;-76
2021/12/12 05:10:49;;;;;;;3.72;3.05;;;;;;;3.20;100.00;95272.34;4923691;29;20031;-75
2021/12/12 05:13:19;;;;;;;8.40;7.18;;;;;;;3.21;100.00;95271.41;4906653;29;20539;-76
2021/12/12 05:15:48;;;;;;;17.45;14.65;;;;;;;3.32;100.00;95270.56;4900376;29;20027;-76
2021/12/12 05:18:48;;;;;;;29.75;22.85;;;;;;;3.25;100.00;95269.41;4915991;29;20122;-76
2021/12/12 05:21:15;;;;;;;47.05;37.10;;;;;;;3.16;100.00;95271.75;4913707;29;20087;-76
2021/12/12 05:23:45;;;;;;;37.95;28.38;;;;;;;3.24;100.00;95266.06;4915113;29;20428;-76
2021/12/12 05:26:14;;;;;;;50.85;31.88;;;;;;;3.12;100.00;95269.53;4910812;29;20032;-76
2021/12/12 05:28:48;;;;;;;11.13;10.00;;;;;;;3.28;100.00;95275.09;4897548;29;20043;-76
2021/12/12 05:31:17;;;;;;;9.65;8.50;;;;;;;3.39;100.00;95271.72;4896692;29;20581;-76
2021/12/12 05:33:43;;;;;;;17.30;13.43;;;;;;;3.39;100.00;95274.28;4895918;29;20024;-76
2021/12/12 05:36:10;;;;;;;16.30;14.50;;;;;;;3.31;100.00;95268.97;4897500;29;20088;-76
2021/12/12 05:38:36;;;;;;;11.18;10.02;;;;;;;3.29;100.00;95275.91;4895326;29;20502;-76
2021/12/12 05:41:03;;;;;;;11.00;8.60;;;;;;;3.33;100.00;95270.47;4897130;29;20039;-76
2021/12/12 05:43:29;;;;;;;22.45;16.15;;;;;;;3.31;100.00;95274.06;4895546;29;20122;-76
2021/12/12 05:45:55;;;;;;;81.80;40.15;;;;;;;3.15;100.00;95270.13;4897085;29;20032;-76
2021/12/12 05:48:21;;;;;;;20.35;15.50;;;;;;;3.33;100.00;95277.31;4896503;29;20032;-75
2021/12/12 05:50:49;;;;;;;7.85;7.05;;;;;;;3.41;100.00;95273.22;4896749;29;20040;-76
2021/12/12 05:53:14;;;;;;;12.20;10.30;;;;;;;3.51;100.00;95286.94;4897563;29;20091;-79
2021/12/12 05:55:41;;;;;;;17.42;13.50;;;;;;;3.51;100.00;95281.81;4896322;29;20036;-79
2021/12/12 05:58:10;;;;;;;10.38;9.30;;;;;;;3.56;100.00;95287.38;4897239;29;20036;-78
2021/12/12 06:00:40;;;;;;;6.70;5.95;;;;;;;3.59;100.00;95282.03;4879531;29;20502;-79
2021/12/12 06:03:11;;;;;;;9.85;8.25;;;;;;;3.65;100.00;95265.38;4896847;29;20040;-79
2021/12/12 06:05:37;;;;;;;10.55;7.35;;;;;;;3.64;100.00;95259.44;4899420;29;20182;-79
2021/12/12 06:08:04;;;;;;;5.55;5.05;;;;;;;3.51;100.00;95234.91;4916097;29;20024;-78
2021/12/12 06:10:31;;;;;;;3.65;3.25;;;;;;;3.48;100.00;95224.91;4915733;29;20477;-78
2021/12/12 06:12:56;;;;;;;6.78;4.10;;;;;;;3.72;100.00;95234.03;4898714;29;20031;-78
2021/12/12 06:15:23;;;;;;;15.75;11.57;;;;;;;3.79;100.00;95224.09;4915522;29;20539;-78
2021/12/12 06:17:51;;;;;;;23.98;17.17;;;;;;;4.00;100.00;95213.88;4898733;29;20390;-78
2021/12/12 06:20:17;;;;;;;11.02;9.30;;;;;;;3.87;100.00;95178.22;4915384;29;20031;-78
2021/12/12 06:22:43;;;;;;;5.15;4.75;;;;;;;3.94;100.00;95156.28;4913336;29;20039;-78
2021/12/12 06:25:09;;;;;;;4.22;3.83;;;;;;;3.97;100.00;95106.53;4898516;29;20035;-78
2021/12/12 06:27:35;;;;;;;6.32;5.72;;;;;;;3.94;100.00;95033.34;4896191;29;20030;-78
2021/12/12 06:30:01;;;;;;;6.18;5.43;;;;;;;3.85;100.00;94952.16;4895409;29;20131;-78
2021/12/12 06:32:27;;;;;;;7.80;5.78;;;;;;;3.96;100.00;94870.06;4880322;29;20123;-78
2021/12/12 06:34:55;;;;;;;3.20;2.83;;;;;;;3.74;100.00;94813.97;4894787;29;20032;-78
2021/12/12 06:37:21;;;;;;;1.92;1.65;;;;;;;3.78;100.00;94753.06;4896378;29;20032;-78
2021/12/12 06:39:47;;;;;;;6.22;4.60;;;;;;;3.77;100.00;94677.97;4909839;29;20504;-78
2021/12/12 06:42:13;;;;;;;11.95;7.50;;;;;;;3.80;100.00;94636.72;4895897;29;20032;-78
2021/12/12 06:44:41;;;;;;;6.75;5.97;;;;;;;3.91;100.00;94599.94;4911697;29;20032;-78
2021/12/12 06:47:08;;;;;;;9.52;7.47;;;;;;;3.70;100.00;94590.66;4880819;29;20127;-79
2021/12/12 06:49:35;;;;;;;8.18;7.00;;;;;;;3.82;100.00;94608.44;4896381;29;20032;-79
2021/12/12 06:52:04;;;;;;;10.68;7.47;;;;;;;3.64;100.00;94606.59;4896788;29;20038;-79
2021/12/12 06:54:30;;;;;;;8.48;6.10;;;;;;;3.56;100.00;94559.59;4911715;29;20095;-78
2021/12/12 06:57:00;;;;;;;4.32;3.92;;;;;;;3.45;100.00;94524.72;4894210;29;20115;-78
2021/12/12 06:59:28;;;;;;;2.90;2.60;;;;;;;3.41;100.00;94537.91;4895584;29;20028;-78
2021/12/12 07:01:54;;;;;;;3.40;2.85;;;;;;;3.78;100.00;94577.19;4920033;29;20291;-79
2021/12/12 07:04:20;;;;;;;3.83;3.53;;;;;;;3.74;100.00;94596.31;4915919;29;20035;-78
2021/12/12 07:06:47;;;;;;;6.15;5.55;;;;;;;3.71;100.00;94622.19;4912738;29;20042;-78
2021/12/12 07:09:13;;;;;;;6.38;5.78;;;;;;;3.73;100.00;94613.44;4896267;29;20028;-78
2021/12/12 07:11:42;;;;;;;5.18;4.45;;;;;;;3.70;100.00;94600.91;4894899;29;20415;-79
2021/12/12 07:14:10;;;;;;;2.78;2.58;;;;;;;3.55;100.00;94581.81;4895168;29;20111;-78
2021/12/12 07:16:36;;;;;;;2.10;1.90;;;;;;;3.88;100.00;94572.03;4912371;29;20425;-78
2021/12/12 07:19:02;;;;;;;3.10;2.50;;;;;;;4.36;100.00;94559.81;4893676;29;20052;-78
2021/12/12 07:21:30;;;;;;;2.55;2.33;;;;;;;4.47;100.00;94503.22;4895821;29;20083;-78
2021/12/12 07:23:59;;;;;;;5.63;5.10;;;;;;;4.66;100.00;94472.31;4893995;29;20060;-78
2021/12/12 07:26:25;;;;;;;25.63;15.13;;;;;;;4.62;100.00;94450.47;4906000;29;20055;-78
2021/12/12 07:28:52;;;;;;;22.92;15.82;;;;;;;4.72;100.00;94420.44;4911636;29;20470;-78
2021/12/12 07:31:22;;;;;;;24.25;14.55;;;;;;;4.63;100.00;94411.06;4879080;29;20490;-78
2021/12/12 07:33:52;;;;;;;8.90;7.70;;;;;;;4.56;100.00;94412.63;4901489;29;20039;-78
2021/12/12 07:36:19;;;;;;;5.20;2.50;;;;;;;4.61;100.00;94381.41;4897201;29;20035;-78
2021/12/12 07:38:57;;;;;;;2.05;1.85;;;;;;;4.56;100.00;94340.06;4914264;29;20275;-79
2021/12/12 07:41:26;;;;;;;1.30;1.20;;;;;;;4.48;100.00;94325.41;4912936;29;20032;-79
2021/12/12 07:43:52;;;;;;;3.53;2.70;;;;;;;4.55;100.00;94316.16;4915023;29;20055;-79
2021/12/12 07:46:18;;;;;;;3.03;2.38;;;;;;;4.52;100.00;94290.03;4914837;29;20513;-78
2021/12/12 07:48:45;;;;;;;1.48;1.27;;;;;;;4.63;100.00;94276.94;4901902;29;20039;-78
2021/12/12 07:51:11;;;;;;;1.15;1.05;;;;;;;4.62;100.00;94258.19;4902045;29;20023;-78
2021/12/12 07:53:37;;;;;;;2.78;2.58;;;;;;;4.73;100.00;94257.94;4918024;29;20580;-78
2021/12/12 07:56:03;;;;;;;3.10;2.80;;;;;;;4.76;100.00;94257.63;4918441;29;20165;-78
2021/12/12 07:58:29;;;;;;;3.00;2.78;;;;;;;4.78;100.00;94262.63;4932291;29;20034;-78
2021/12/12 08:00:56;;;;;;;3.25;1.73;;;;;;;4.71;100.00;94259.84;4912191;29;20075;-78
2021/12/12 08:03:26;;;;;;;2.58;2.38;;;;;;;4.83;100.00;94257.00;4895362;29;20039;-78
2021/12/12 08:05:52;;;;;;;2.95;2.72;;;;;;;4.58;100.00;94249.22;4884534;29;20116;-78
2021/12/12 08:08:18;;;;;;;4.07;3.65;;;;;;;4.73;100.00;94250.25;4877766;29;20119;-79
2021/12/12 08:10:46;;;;;;;5.22;4.72;;;;;;;4.63;100.00;94259.00;4863182;29;20036;-78
2021/12/12 08:13:14;;;;;;;4.05;3.65;;;;;;;4.73;100.00;94275.88;4862750;29;20538;-79
2021/12/12 08:15:39;;;;;;;3.60;3.30;;;;;;;4.59;100.00;94260.28;4878274;29;20084;-78
2021/12/12 08:18:08;;;;;;;2.80;2.60;;;;;;;4.86;100.00;94278.03;4894089;29;20036;-79
2021/12/12 08:20:34;;;;;;;3.83;3.53;;;;;;;4.83;100.00;94274.97;4877524;29;20025;-79
2021/12/12 08:23:00;;;;;;;4.45;4.05;;;;;;;4.71;100.00;94280.38;4878862;29;20032;-78
2021/12/12 08:25:26;;;;;;;3.45;3.15;;;;;;;4.74;100.00;94271.56;4861354;29;20111;-79
2021/12/12 08:27:54;;;;;;;3.78;3.15;;;;;;;4.57;100.00;94267.28;4896204;29;20025;-79
2021/12/12 08:30:20;;;;;;;3.83;3.20;;;;;;;4.72;100.00;94265.75;4863256;29;20423;-79
2021/12/12 08:32:47;;;;;;;1.88;1.63;;;;;;;4.69;100.00;94258.38;4878633;29;20072;-78
2021/12/12 08:35:15;;;;;;;3.58;1.67;;;;;;;4.83;100.00;94259.56;4864440;29;20065;-78
2021/12/12 08:37:42;;;;;;;2.92;2.63;;;;;;;4.84;100.00;94205.56;4897154;29;20048;-79
2021/12/12 08:40:11;;;;;;;6.10;4.93;;;;;;;4.87;100.00;94207.81;4915007;29;20478;-79
2021/12/12 08:42:37;;;;;;;5.30;3.65;;;;;;;4.51;100.00;94216.63;4897018;29;20071;-79
2021/12/12 08:45:08;;;;;;;3.85;3.30;;;;;;;4.44;100.00;94219.00;4898364;29;20020;-79
2021/12/12 08:47:35;;;;;;;9.43;6.72;;;;;;;4.23;100.00;94216.00;4880967;29;20027;-77
2021/12/12 08:50:01;;;;;;;7.15;5.22;;;;;;;4.18;100.00;94225.88;4898531;29;20036;-79
2021/12/12 08:52:33;;;;;;;5.53;4.78;;;;;;;4.52;100.00;94229.31;4896964;29;20043;-79
2021/12/12 08:55:00;;;;;;;5.03;4.10;;;;;;;4.51;100.00;94225.13;4898050;29;20028;-79
2021/12/12 08:57:41;;;;;;;3.17;2.88;;;;;;;4.45;100.00;94230.88;4896382;29;20027;-79
2021/12/12 09:00:12;;;;;;;5.63;3.83;;;;;;;4.97;100.00;94223.09;4913595;29;20100;-79
2021/12/12 09:02:37;;;;;;;8.02;6.70;;;;;;;5.11;100.00;94223.28;4896924;29;20510;-79
2021/12/12 09:05:13;;;;;;;3.97;3.28;;;;;;;5.15;100.00;94221.22;4876346;29;20051;-79
2021/12/12 09:07:44;;;;;;;4.25;2.92;;;;;;;4.88;100.00;94224.81;4879776;29;21149;-80
2021/12/12 09:10:21;;;;;;;3.88;3.00;;;;;;;4.93;100.00;94224.34;4865429;29;20028;-79
2021/12/12 09:13:09;;;;;;;1.45;1.20;;;;;;;4.76;100.00;94224.28;4892214;29;20047;-77
2021/12/12 09:15:55;;;;;;;3.47;2.83;;;;;;;4.56;100.00;94240.06;4897658;29;20036;-79
2021/12/12 09:18:41;;;;;;;8.13;2.33;;;;;;;4.67;100.00;94253.41;4913477;29;20055;-79
2021/12/12 09:21:23;;;;;;;2.33;1.48;;;;;;;4.51;100.00;94250.75;4897638;29;20480;-79
2021/12/12 09:24:11;;;;;;;2.03;1.52;;;;;;;4.57;100.00;94236.53;4897801;29;20088;-78
2021/12/12 09:26:43;;;;;;;3.03;1.90;;;;;;;4.92;100.00;94231.25;4881265;29;20024;-78
2021/12/12 09:29:29;;;;;;;2.97;2.60;;;;;;;4.87;100.00;94220.66;4900603;29;20062;-80
2021/12/12 09:32:30;;;;;;;1.42;1.15;;;;;;;4.66;100.00;94238.97;4896728;29;20032;-80
2021/12/12 09:35:22;;;;;;;3.72;2.70;;;;;;;4.73;100.00;94242.53;4893698;29;20039;-79
2021/12/12 09:37:54;;;;;;;2.25;2.05;;;;;;;4.87;100.00;94242.94;4892945;29;20132;-79
2021/12/12 09:40:20;;;;;;;3.97;2.08;;;;;;;4.92;100.00;94245.81;4878904;29;20035;-80
2021/12/12 09:42:57;;;;;;;1.52;1.42;;;;;;;4.77;100.00;94240.47;4900053;29;20052;-81
2021/12/12 09:45:55;;;;;;;2.35;2.15;;;;;;;4.89;100.00;94252.06;4903102;29;20036;-81
2021/12/12 09:52:10;;;;;;;3.15;2.03;;;;;;;4.97;100.00;94249.56;4866564;29;20122;-80
2021/12/12 09:54:57;;;;;;;1.70;1.40;;;;;;;4.64;100.00;94253.72;4897794;29;20370;-80
2021/12/12 09:57:33;;;;;;;2.50;2.30;;;;;;;4.64;100.00;94258.84;4897696;29;20032;-80
2021/12/12 10:00:09;;;;;;;2.95;2.65;;;;;;;4.47;100.00;94266.59;4896400;29;20429;-80
2021/12/12 10:03:05;;;;;;;3.08;2.25;;;;;;;4.48;100.00;94269.00;4899567;29;20139;-79
2021/12/12 10:06:02;;;;;;;2.00;1.75;;;;;;;4.41;100.00;94264.63;4915048;29;20119;-79
2021/12/12 10:09:04;;;;;;;1.98;1.50;;;;;;;4.64;100.00;94261.41;4894860;29;20036;-79
2021/12/12 10:11:58;;;;;;;5.50;2.47;;;;;;;4.84;100.00;94271.44;4858481;29;20107;-79
2021/12/12 10:14:39;;;;;;;3.65;2.08;;;;;;;4.60;100.00;94264.41;4921431;29;20173;-79
2021/12/12 10:17:10;;;;;;;;;;;;;;;4.60;100.00;94277.25;4913656;29;20493;-80
2021/12/12 10:19:41;;;;;;;3.72;2.55;;;;;;;4.59;100.00;94291.03;4915328;29;20046;-80
2021/12/12 10:22:45;;;;;;;2.30;2.08;;;;;;;4.25;100.00;94288.38;4913993;29;20494;-79
2021/12/12 10:25:18;;;;;;;2.47;1.80;;;;;;;4.40;100.00;94284.31;4853961;29;20065;-79
2021/12/12 10:27:58;;;;;;;2.25;1.85;;;;;;;4.45;100.00;94287.25;4840697;29;20049;-79
2021/12/12 10:30:43;;;;;;;;;;;;;;;4.36;100.00;94292.47;4890516;29;20500;-80
2021/12/12 10:33:23;;;;;;;3.28;2.10;;;;;;;4.61;100.00;94292.50;4912901;29;20002;-80
2021/12/12 10:35:58;;;;;;;4.93;1.60;;;;;;;4.50;100.00;94292.72;4913118;29;20115;-79
2021/12/12 10:38:33;;;;;;;2.40;2.20;;;;;;;4.71;100.00;94292.38;4897252;29;20115;-80
2021/12/12 10:41:07;;;;;;;3.17;1.52;;;;;;;4.94;100.00;94296.03;4912560;29;20425;-79
2021/12/12 10:43:40;;;;;;;1.88;1.77;;;;;;;4.58;100.00;94303.03;4896131;29;20229;-80
2021/12/12 10:46:25;;;;;;;1.75;1.65;;;;;;;5.03;100.00;94309.69;4910088;29;20682;-80
2021/12/12 10:49:09;;;;;;;1.13;1.00;;;;;;;4.98;100.00;94310.16;4896374;29;20028;-79
2021/12/12 10:51:43;;;;;;;1.27;1.10;;;;;;;5.22;100.00;94300.00;4898260;29;20039;-79
2021/12/12 10:54:15;;;;;;;0.77;0.77;;;;;;;4.48;100.00;94288.72;4881272;29;20040;-79
2021/12/12 10:56:52;;;;;;;1.00;0.90;;;;;;;4.99;100.00;94303.25;4896536;29;20044;-79
2021/12/12 10:59:37;;;;;;;0.95;0.95;;;;;;;5.03;100.00;94302.00;4912712;29;20566;-80
2021/12/12 11:02:06;;;;;;;0.93;0.90;;;;;;;4.99;100.00;94288.69;4879931;29;20497;-80
2021/12/12 11:04:47;;;;;;;1.10;1.00;;;;;;;4.51;100.00;94301.22;4897794;29;20386;-79
2021/12/12 11:07:20;;;;;;;2.00;1.80;;;;;;;4.42;100.00;94302.94;4912583;29;20059;-79
2021/12/12 11:10:05;;;;;;;2.22;2.03;;;;;;;4.62;100.00;94296.63;4896834;29;20040;-79
2021/12/12 11:12:40;;;;;;;1.90;1.77;;;;;;;4.65;100.00;94291.25;4897078;29;20119;-79
2021/12/12 11:15:20;;;;;;;2.55;2.35;;;;;;;4.30;100.00;94305.88;4925200;29;20027;-78
2021/12/12 11:17:59;;;;;;;1.67;1.57;;;;;;;4.23;100.00;94300.56;4901224;29;20042;-78
2021/12/12 11:20:29;;;;;;;2.00;1.70;;;;;;;4.50;100.00;94297.84;4930676;29;20318;-79
2021/12/12 11:22:58;;;;;;;1.77;1.67;;;;;;;4.23;100.00;94298.00;4919060;29;20043;-79
2021/12/12 11:25:47;;;;;;;1.80;1.70;;;;;;;4.20;100.00;94305.97;4920964;29;20050;-81
2021/12/12 11:28:20;;;;;;;2.38;1.98;;;;;;;3.89;100.00;94307.28;4918228;29;20024;-79
2021/12/12 11:30:57;;;;;;;3.33;2.10;;;;;;;3.97;100.00;94309.94;4919489;29;20532;-79
2021/12/12 11:33:25;;;;;;;2.67;2.47;;;;;;;3.90;100.00;94308.91;4936580;29;20028;-80
2021/12/12 11:35:53;;;;;;;2.75;2.55;;;;;;;4.01;100.00;94306.13;4921126;29;20031;-79
2021/12/12 11:38:37;;;;;;;5.32;4.00;;;;;;;4.18;100.00;94308.66;4938826;29;20043;-80
2021/12/12 11:41:12;;;;;;;2.97;2.78;;;;;;;3.83;100.00;94301.00;4921721;29;20114;-80
2021/12/12 11:43:43;;;;;;;3.60;2.83;;;;;;;3.63;100.00;94315.69;4917722;29;20020;-78
2021/12/12 11:46:21;;;;;;;2.95;2.60;;;;;;;3.96;100.00;94308.31;4900609;29;20039;-79
2021/12/12 11:49:02;;;;;;;3.00;2.55;;;;;;;3.93;100.00;94308.63;4886712;29;20032;-81
2021/12/12 11:51:37;;;;;;;2.25;2.03;;;;;;;3.57;100.00;94307.78;4903476;29;20028;-79
2021/12/12 11:54:34;;;;;;;2.47;2.28;;;;;;;3.76;100.00;94320.47;4907958;29;20481;-80
2021/12/12 11:57:06;;;;;;;1.60;1.50;;;;;;;3.60;100.00;94323.66;4938391;29;20032;-80
2021/12/12 11:59:39;;;;;;;2.38;2.17;;;;;;;3.71;100.00;94330.34;4919912;29;20074;-79
2021/12/12 12:02:37;;;;;;;2.63;2.42;;;;;;;3.47;100.00;94337.75;4920359;29;20147;-80
2021/12/12 12:05:32;;;;;;;1.75;1.65;;;;;;;3.73;100.00;94331.81;4920769;29;20040;-80
2021/12/12 12:08:51;;;;;;;3.63;1.98;;;;;;;3.37;100.00;94344.69;4921917;29;20039;-81
2021/12/12 12:11:37;;;;;;;1.88;1.77;;;;;;;3.56;100.00;94339.47;4867205;29;20028;-80
2021/12/12 12:14:10;;;;;;;1.90;1.80;;;;;;;3.42;100.00;94345.88;4932711;29;20060;-81
2021/12/12 12:17:05;;;;;;;2.30;2.05;;;;;;;3.38;100.00;94349.66;4936782;29;20117;-79
2021/12/12 12:19:55;;;;;;;2.65;2.45;;;;;;;3.40;100.00;94347.78;4899082;29;20040;-80
2021/12/12 12:22:26;;;;;;;2.25;2.05;;;;;;;3.26;100.00;94349.97;4915312;29;20108;-77
2021/12/12 12:25:00;;;;;;;2.75;2.40;;;;;;;3.36;100.00;94351.56;4912707;29;20036;-80
2021/12/12 12:27:40;;;;;;;2.10;2.00;;;;;;;3.33;100.00;94351.84;4908461;29;20039;-81
2021/12/12 12:30:30;;;;;;;1.70;1.60;;;;;;;3.05;100.00;94360.44;4918264;29;20032;-80
2021/12/12 12:33:46;;;;;;;3.08;2.60;;;;;;;3.17;100.00;94367.00;4919788;29;20043;-79
2021/12/12 12:36:59;;;;;;;2.83;2.28;;;;;;;3.08;100.00;94357.59;4918959;29;20032;-78
2021/12/12 12:39:30;;;;;;;3.28;2.13;;;;;;;3.04;100.00;94363.94;4912994;29;20040;-79
2021/12/12 12:42:02;;;;;;;3.08;2.75;;;;;;;2.86;100.00;94357.97;4915768;29;20032;-78
2021/12/12 12:45:05;;;;;;;2.95;2.67;;;;;;;2.97;100.00;94368.81;4931729;29;20039;-81
2021/12/12 12:48:08;;;;;;;2.40;2.25;;;;;;;2.96;100.00;94371.50;4915134;29;20059;-81
2021/12/12 12:50:39;;;;;;;1.95;1.80;;;;;;;2.57;100.00;94379.25;4941558;29;20035;-80
2021/12/12 12:53:29;;;;;;;3.35;3.05;;;;;;;2.88;100.00;94391.84;4894601;29;20028;-80
2021/12/12 12:56:32;;;;;;;2.45;2.25;;;;;;;2.59;100.00;94385.03;4902462;29;20043;-78
2021/12/12 12:59:25;;;;;;;2.60;2.40;;;;;;;2.89;100.00;94383.25;4917422;29;20477;-80
2021/12/12 13:02:09;;;;;;;2.42;2.22;;;;;;;2.86;100.00;94380.97;4926726;29;20044;-80
2021/12/12 13:04:56;;;;;;;2.13;2.03;;;;;;;2.70;100.00;94384.06;4909649;29;20036;-80
2021/12/12 13:07:40;;;;;;;2.72;2.53;;;;;;;2.86;100.00;94375.84;4912027;29;20043;-80
2021/12/12 13:10:24;;;;;;;3.30;3.00;;;;;;;2.94;100.00;94387.00;4913799;29;20027;-80
2021/12/12 13:12:56;;;;;;;2.75;2.55;;;;;;;2.81;100.00;94393.34;4900579;29;20032;-77
2021/12/12 13:15:44;;;;;;;3.22;2.92;;;;;;;2.92;100.00;94400.88;4917623;29;20128;-80
2021/12/12 13:18:27;;;;;;;2.60;2.38;;;;;;;3.15;100.00;94404.69;4922636;29;20044;-80
2021/12/12 13:21:18;;;;;;;3.10;2.90;;;;;;;3.20;100.00;94399.97;4905415;29;20023;-80
2021/12/12 13:24:07;;;;;;;3.70;3.40;;;;;;;3.18;100.00;94402.66;4902479;29;20118;-79
2021/12/12 13:26:55;;;;;;;4.05;3.75;;;;;;;3.25;100.00;94400.34;4903175;29;20034;-80
2021/12/12 13:29:31;;;;;;;4.57;4.18;;;;;;;2.85;100.00;94413.38;4921065;29;20036;-80
2021/12/12 13:32:04;;;;;;;4.80;4.40;;;;;;;2.72;100.00;94412.88;4908655;29;20036;-79
2021/12/12 13:34:36;;;;;;;6.32;5.72;;;;;;;2.75;100.00;94409.22;4900715;29;20032;-79
2021/12/12 13:37:31;;;;;;;6.45;5.85;;;;;;;2.62;100.00;94414.63;4917923;29;20024;-80
2021/12/12 13:40:17;;;;;;;5.85;5.25;;;;;;;2.67;100.00;94420.94;4910814;29;20111;-79
2021/12/12 13:43:02;;;;;;;8.75;7.22;;;;;;;2.57;100.00;94427.00;4917269;29;20042;-80
2021/12/12 13:45:32;;;;;;;8.25;6.72;;;;;;;2.66;100.00;94434.66;4901872;29;20032;-78
2021/12/12 13:48:28;;;;;;;5.18;4.57;;;;;;;2.57;100.00;94432.91;4901758;29;20024;-79
2021/12/12 13:51:24;;;;;;;5.55;4.10;;;;;;;2.54;100.00;94440.84;4919164;29;20185;-79
2021/12/12 13:53:57;;;;;;;3.00;2.78;;;;;;;2.56;100.00;94433.88;4917209;29;20036;-80
2021/12/12 13:56:40;;;;;;;4.05;3.70;;;;;;;2.45;100.00;94436.56;4903033;29;20521;-79
2021/12/12 13:59:24;;;;;;;3.72;3.53;;;;;;;2.44;100.00;94429.03;4887007;29;20039;-81
2021/12/12 14:01:55;;;;;;;5.78;5.38;;;;;;;2.41;100.00;94435.19;4906936;29;20052;-80
2021/12/12 14:04:48;;;;;;;3.60;3.30;;;;;;;2.51;100.00;94436.00;4906646;29;20047;-79
2021/12/12 14:07:16;;;;;;;4.90;4.50;;;;;;;2.36;100.00;94431.44;4917549;29;20056;-80
2021/12/12 14:09:43;;;;;;;5.65;4.85;;;;;;;2.28;100.00;94444.09;4900975;29;20089;-80
2021/12/12 14:12:09;;;;;;;7.95;6.55;;;;;;;2.37;100.00;94445.84;4899812;29;20036;-80
2021/12/12 14:14:50;;;;;;;13.77;9.23;;;;;;;2.17;100.00;94447.56;4898594;29;20025;-79
2021/12/12 14:17:47;;;;;;;6.95;5.88;;;;;;;2.35;100.00;94447.69;4899594;29;20126;-78
2021/12/12 14:20:17;;;;;;;3.97;3.58;;;;;;;2.20;100.00;94447.31;4903046;29;20051;-80
2021/12/12 14:22:43;;;;;;;4.18;3.78;;;;;;;2.24;100.00;94442.72;4899599;29;20043;-79
2021/12/12 14:25:10;;;;;;;4.90;4.50;;;;;;;2.19;100.00;94448.22;4899405;29;20040;-81
2021/12/12 14:27:37;;;;;;;4.60;4.20;;;;;;;2.18;100.00;94456.84;4898025;29;20417;-78
2021/12/12 14:30:08;;;;;;;4.65;4.25;;;;;;;2.16;100.00;94461.25;4883762;29;20832;-78
2021/12/12 14:32:38;;;;;;;4.60;4.20;;;;;;;2.21;100.00;94464.25;4910681;29;20039;-80
2021/12/12 14:35:15;;;;;;;8.35;6.57;;;;;;;2.22;100.00;94455.63;4896983;29;20464;-80
2021/12/12 14:37:43;;;;;;;9.20;7.75;;;;;;;2.21;100.00;94460.88;4895756;29;20074;-79
2021/12/12 14:40:16;;;;;;;6.50;5.85;;;;;;;2.11;100.00;94471.09;4917450;29;20027;-79
2021/12/12 14:43:02;;;;;;;5.78;4.82;;;;;;;2.07;100.00;94473.09;4891995;29;20107;-79
2021/12/12 14:45:38;;;;;;;10.90;8.43;;;;;;;2.03;100.00;94473.47;4909762;29;20067;-79
2021/12/12 14:48:12;;;;;;;8.13;5.55;;;;;;;2.06;100.00;94470.66;4905599;29;20028;-81
2021/12/12 14:50:48;;;;;;;5.20;4.80;;;;;;;1.89;100.00;94478.97;4923028;29;20031;-79
2021/12/12 14:53:18;;;;;;;6.75;6.15;;;;;;;1.92;100.00;94481.25;4890794;29;20122;-79
2021/12/12 14:55:56;;;;;;;5.83;5.23;;;;;;;1.89;100.00;94489.97;4911824;29;20091;-80
2021/12/12 14:58:25;;;;;;;5.90;5.28;;;;;;;1.96;100.00;94490.25;4910225;29;20036;-80
2021/12/12 15:01:21;;;;;;;5.43;4.93;;;;;;;1.91;100.00;94488.09;4912615;29;20327;-79
2021/12/12 15:03:52;;;;;;;4.90;4.50;;;;;;;1.99;100.00;94490.78;4899309;29;20051;-79
2021/12/12 15:06:21;;;;;;;6.38;5.78;;;;;;;2.00;100.00;94489.06;4897385;29;20032;-78
2021/12/12 15:09:01;;;;;;;5.73;5.13;;;;;;;1.85;100.00;94492.91;4895654;29;20028;-80
2021/12/12 15:11:35;;;;;;;6.38;5.78;;;;;;;1.82;100.00;94490.63;4881581;29;20039;-78
2021/12/12 15:14:01;;;;;;;6.78;5.55;;;;;;;1.80;100.00;94483.09;4896330;29;20101;-79
2021/12/12 15:16:36;;;;;;;5.78;5.28;;;;;;;1.76;100.00;94493.69;4896022;29;20024;-78
2021/12/12 15:19:11;;;;;;;6.55;5.95;;;;;;;1.75;100.00;94504.81;4880974;29;20032;-79
2021/12/12 15:21:47;;;;;;;6.10;5.50;;;;;;;1.68;100.00;94501.97;4895579;29;20020;-80
2021/12/12 15:24:16;;;;;;;7.95;7.25;;;;;;;1.62;100.00;94505.06;4917720;29;20034;-79
2021/12/12 15:26:43;;;;;;;7.18;6.57;;;;;;;1.62;100.00;94520.34;4905749;29;20040;-79
2021/12/12 15:29:11;;;;;;;8.77;7.95;;;;;;;1.52;100.00;94514.41;4897534;29;20023;-78
2021/12/12 15:31:47;;;;;;;9.52;8.68;;;;;;;1.50;100.00;94539.25;4903100;29;20103;-79
2021/12/12 15:34:20;;;;;;;11.27;10.18;;;;;;;1.42;100.00;94534.75;4922078;29;20449;-79
2021/12/12 15:36:56;;;;;;;11.40;10.20;;;;;;;1.37;100.00;94552.19;4922348;29;20035;-80
2021/12/12 15:39:25;;;;;;;11.07;9.98;;;;;;;1.29;100.00;94535.88;4909218;29;20035;-80
2021/12/12 15:42:01;;;;;;;11.50;10.27;;;;;;;1.37;100.00;94559.03;4903202;29;20027;-79
2021/12/12 15:44:32;;;;;;;12.77;11.60;;;;;;;1.32;100.00;94566.22;4896276;29;20075;-81
2021/12/12 15:47:00;;;;;;;13.02;11.40;;;;;;;1.25;100.00;94634.81;4921481;29;20493;-80
2021/12/12 15:49:33;;;;;;;12.77;11.43;;;;;;;1.20;100.00;94652.19;4895073;29;20031;-78
2021/12/12 15:52:12;;;;;;;10.95;9.50;;;;;;;1.19;100.00;94665.06;4920389;29;20024;-80
2021/12/12 15:54:38;;;;;;;9.50;8.60;;;;;;;1.23;100.00;94666.44;4905835;29;20036;-79
2021/12/12 15:57:14;;;;;;;8.23;7.43;;;;;;;1.08;100.00;94676.09;4906204;29;20039;-80
2021/12/12 15:59:46;;;;;;;9.27;8.45;;;;;;;1.17;100.00;94685.56;4913282;29;20039;-78
2021/12/12 16:02:19;;;;;;;9.90;8.95;;;;;;;1.12;100.00;94684.31;4901304;29;20573;-78
2021/12/12 16:04:45;;;;;;;8.85;7.95;;;;;;;1.16;100.00;94704.34;4918064;29;20228;-79
2021/12/12 16:07:18;;;;;;;9.88;8.93;;;;;;;1.17;100.00;94705.16;4888396;29;20301;-79
2021/12/12 16:09:50;;;;;;;8.63;7.82;;;;;;;1.17;100.00;94707.72;4903310;29;20024;-79
2021/12/12 16:12:21;;;;;;;8.38;7.70;;;;;;;1.19;100.00;94706.66;4907387;29;20020;-79
2021/12/12 16:14:53;;;;;;;7.63;6.95;;;;;;;1.21;100.00;94707.34;4894101;29;20488;-78
2021/12/12 16:17:23;;;;;;;7.43;6.82;;;;;;;1.18;100.00;94707.59;4889433;29;20390;-78
2021/12/12 16:19:50;;;;;;;9.18;8.32;;;;;;;1.19;100.00;94711.75;4902350;29;20036;-78
2021/12/12 16:22:27;;;;;;;11.50;10.50;;;;;;;1.11;100.00;94715.84;4906447;29;20492;-78
2021/12/12 16:25:10;;;;;;;9.35;8.45;;;;;;;1.10;100.00;94712.47;4911976;29;20514;-78
2021/12/12 16:27:40;;;;;;;10.80;9.70;;;;;;;1.18;100.00;94720.34;4884781;29;20030;-79
2021/12/12 16:30:13;;;;;;;10.98;9.98;;;;;;;1.13;100.00;94712.22;4909597;29;20043;-78
2021/12/12 16:32:43;;;;;;;10.27;9.38;;;;;;;1.27;100.00;94734.91;4911313;29;20175;-77
2021/12/12 16:35:14;;;;;;;12.38;10.13;;;;;;;1.11;100.00;94726.03;4917471;29;20043;-78
2021/12/12 16:37:42;;;;;;;10.50;9.45;;;;;;;1.15;100.00;94724.88;4909826;29;20044;-78
2021/12/12 16:40:09;;;;;;;10.02;9.02;;;;;;;1.25;100.00;94731.69;4905390;29;20040;-79
2021/12/12 16:42:48;;;;;;;11.05;9.98;;;;;;;1.22;100.00;94721.72;4908982;29;21346;-78
2021/12/12 16:45:22;;;;;;;11.98;10.85;;;;;;;1.12;100.00;94722.56;4907969;29;20090;-78
2021/12/12 16:47:52;;;;;;;11.90;10.90;;;;;;;1.04;100.00;94725.69;4926179;29;20032;-78
2021/12/12 16:50:26;;;;;;;12.70;11.40;;;;;;;1.16;100.00;94729.03;4893684;29;20119;-79
2021/12/12 16:52:53;;;;;;;14.88;13.25;;;;;;;1.23;100.00;94725.88;4909644;29;20040;-79
2021/12/12 16:55:28;;;;;;;13.43;12.18;;;;;;;1.16;100.00;94717.09;4905395;29;20044;-79
2021/12/12 16:58:00;;;;;;;11.52;10.27;;;;;;;1.15;100.00;94725.69;4910828;29;20036;-79
2021/12/12 17:00:30;;;;;;;11.23;8.95;;;;;;;1.08;100.00;94701.59;4902882;29;20410;-78
2021/12/12 17:03:00;;;;;;;9.77;8.05;;;;;;;1.31;100.00;94713.34;4895534;29;20599;-79
2021/12/12 17:05:30;;;;;;;8.43;7.63;;;;;;;1.23;100.00;94720.78;4896472;29;20036;-79
2021/12/12 17:08:13;;;;;;;;;;;;;;;1.17;100.00;94721.28;4896097;29;20028;-79
2021/12/12 17:10:42;;;;;;;7.97;7.18;;;;;;;1.11;100.00;94711.56;4898130;29;19915;-79